sensor_id;sensor_type;location;lat;lon;timestamp;P1;durP1;ratioP1;P2;durP2;ratioP2
51124;SDS011;37163;55.556;39.108;2023-11-21T00:01:19;0.77;;;0.60;;
51124;SDS011;37163;55.556;39.108;2023-11-21T00:03:44;1.50;;;0.90;;
51124;SDS011;37163;55.556;39.108;2023-11-21T00:06:10;2.05;;;0.60;;
51124;SDS011;37163;55.556;39.108;2023-11-21T00:08:36;0.85;;;0.60;;
51124;SDS011;37163;55.556;39.108;2023-11-21T00:11:02;1.50;;;0.70;;
51124;SDS011;37163;55.556;39.108;2023-11-21T00:13:34;2.05;;;0.80;;
51124;SDS011;37163;55.556;39.108;2023-11-21T00:16:00;1.00;;;0.40;;
51124;SDS011;37163;55.556;39.108;2023-11-21T00:18:26;1.33;;;0.60;;
51124;SDS011;37163;55.556;39.108;2023-11-21T00:20:51;1.33;;;0.50;;
51124;SDS011;37163;55.556;39.108;2023-11-21T00:23:17;1.10;;;0.60;;
51124;SDS011;37163;55.556;39.108;2023-11-21T00:25:43;2.08;;;0.88;;
51124;SDS011;37163;55.556;39.108;2023-11-21T00:28:09;1.05;;;0.75;;
51124;SDS011;37163;55.556;39.108;2023-11-21T00:30:35;0.47;;;0.30;;
51124;SDS011;37163;55.556;39.108;2023-11-21T00:33:01;1.05;;;0.50;;
51124;SDS011;37163;55.556;39.108;2023-11-21T00:35:26;1.58;;;0.63;;
51124;SDS011;37163;55.556;39.108;2023-11-21T00:37:53;1.70;;;0.70;;
51124;SDS011;37163;55.556;39.108;2023-11-21T00:40:18;1.67;;;0.70;;
51124;SDS011;37163;55.556;39.108;2023-11-21T00:42:49;0.88;;;0.40;;
51124;SDS011;37163;55.556;39.108;2023-11-21T00:45:14;0.80;;;0.40;;
51124;SDS011;37163;55.556;39.108;2023-11-21T00:47:40;1.85;;;0.63;;
51124;SDS011;37163;55.556;39.108;2023-11-21T00:50:06;1.35;;;0.43;;
51124;SDS011;37163;55.556;39.108;2023-11-21T00:52:32;1.52;;;0.73;;
51124;SDS011;37163;55.556;39.108;2023-11-21T00:54:58;1.17;;;0.50;;
51124;SDS011;37163;55.556;39.108;2023-11-21T00:57:29;1.25;;;0.60;;
51124;SDS011;37163;55.556;39.108;2023-11-21T00:59:55;0.70;;;0.43;;
51124;SDS011;37163;55.556;39.108;2023-11-21T01:02:20;1.10;;;0.55;;
51124;SDS011;37163;55.556;39.108;2023-11-21T01:04:46;2.03;;;0.63;;
51124;SDS011;37163;55.556;39.108;2023-11-21T01:07:14;0.90;;;0.50;;
51124;SDS011;37163;55.556;39.108;2023-11-21T01:09:40;0.98;;;0.43;;
51124;SDS011;37163;55.556;39.108;2023-11-21T01:12:05;1.00;;;0.50;;
51124;SDS011;37163;55.556;39.108;2023-11-21T01:14:33;0.80;;;0.40;;
51124;SDS011;37163;55.556;39.108;2023-11-21T01:16:59;1.63;;;0.57;;
51124;SDS011;37163;55.556;39.108;2023-11-21T01:19:24;1.02;;;0.40;;
51124;SDS011;37163;55.556;39.108;2023-11-21T01:21:50;0.80;;;0.30;;
51124;SDS011;37163;55.556;39.108;2023-11-21T01:24:17;1.30;;;0.60;;
51124;SDS011;37163;55.556;39.108;2023-11-21T01:26:43;0.50;;;0.47;;
51124;SDS011;37163;55.556;39.108;2023-11-21T01:29:10;1.52;;;0.70;;
51124;SDS011;37163;55.556;39.108;2023-11-21T01:31:36;0.50;;;0.20;;
51124;SDS011;37163;55.556;39.108;2023-11-21T01:34:02;0.70;;;0.47;;
51124;SDS011;37163;55.556;39.108;2023-11-21T01:36:31;0.82;;;0.43;;
51124;SDS011;37163;55.556;39.108;2023-11-21T01:38:58;0.57;;;0.40;;
51124;SDS011;37163;55.556;39.108;2023-11-21T01:41:25;0.75;;;0.50;;
51124;SDS011;37163;55.556;39.108;2023-11-21T01:43:54;0.40;;;0.30;;
51124;SDS011;37163;55.556;39.108;2023-11-21T01:46:20;0.20;;;0.20;;
51124;SDS011;37163;55.556;39.108;2023-11-21T01:48:47;1.80;;;0.68;;
51124;SDS011;37163;55.556;39.108;2023-11-21T01:51:14;1.80;;;0.77;;
51124;SDS011;37163;55.556;39.108;2023-11-21T01:53:40;0.60;;;0.40;;
51124;SDS011;37163;55.556;39.108;2023-11-21T01:56:06;0.55;;;0.38;;
51124;SDS011;37163;55.556;39.108;2023-11-21T01:58:33;1.30;;;0.43;;
51124;SDS011;37163;55.556;39.108;2023-11-21T02:00:59;0.95;;;0.30;;
51124;SDS011;37163;55.556;39.108;2023-11-21T02:03:26;1.10;;;0.43;;
51124;SDS011;37163;55.556;39.108;2023-11-21T02:05:53;0.40;;;0.40;;
51124;SDS011;37163;55.556;39.108;2023-11-21T02:08:19;0.90;;;0.40;;
51124;SDS011;37163;55.556;39.108;2023-11-21T02:10:45;0.50;;;0.50;;
51124;SDS011;37163;55.556;39.108;2023-11-21T02:13:11;1.38;;;0.50;;
51124;SDS011;37163;55.556;39.108;2023-11-21T02:15:37;1.90;;;0.70;;
51124;SDS011;37163;55.556;39.108;2023-11-21T02:18:04;0.70;;;0.50;;
51124;SDS011;37163;55.556;39.108;2023-11-21T02:20:31;1.80;;;0.47;;
51124;SDS011;37163;55.556;39.108;2023-11-21T02:23:00;1.05;;;0.80;;
51124;SDS011;37163;55.556;39.108;2023-11-21T02:25:27;0.75;;;0.40;;
51124;SDS011;37163;55.556;39.108;2023-11-21T02:28:02;1.65;;;0.30;;
51124;SDS011;37163;55.556;39.108;2023-11-21T02:30:29;0.73;;;0.40;;
51124;SDS011;37163;55.556;39.108;2023-11-21T02:32:57;0.73;;;0.30;;
51124;SDS011;37163;55.556;39.108;2023-11-21T02:35:24;1.38;;;0.50;;
51124;SDS011;37163;55.556;39.108;2023-11-21T02:37:51;1.27;;;0.63;;
51124;SDS011;37163;55.556;39.108;2023-11-21T02:40:18;2.67;;;0.68;;
51124;SDS011;37163;55.556;39.108;2023-11-21T02:42:46;0.90;;;0.50;;
51124;SDS011;37163;55.556;39.108;2023-11-21T02:45:17;2.38;;;0.93;;
51124;SDS011;37163;55.556;39.108;2023-11-21T02:47:44;1.25;;;0.55;;
51124;SDS011;37163;55.556;39.108;2023-11-21T02:50:10;3.00;;;0.95;;
51124;SDS011;37163;55.556;39.108;2023-11-21T02:52:36;3.88;;;0.88;;
51124;SDS011;37163;55.556;39.108;2023-11-21T02:55:02;0.93;;;0.30;;
51124;SDS011;37163;55.556;39.108;2023-11-21T02:57:29;1.05;;;0.63;;
51124;SDS011;37163;55.556;39.108;2023-11-21T02:59:55;0.73;;;0.50;;
51124;SDS011;37163;55.556;39.108;2023-11-21T03:02:21;0.73;;;0.32;;
51124;SDS011;37163;55.556;39.108;2023-11-21T03:04:48;1.60;;;0.47;;
51124;SDS011;37163;55.556;39.108;2023-11-21T03:07:15;1.38;;;0.80;;
51124;SDS011;37163;55.556;39.108;2023-11-21T03:09:41;1.25;;;0.60;;
51124;SDS011;37163;55.556;39.108;2023-11-21T03:12:07;2.03;;;1.00;;
51124;SDS011;37163;55.556;39.108;2023-11-21T03:14:34;1.65;;;0.77;;
51124;SDS011;37163;55.556;39.108;2023-11-21T03:17:00;0.98;;;0.55;;
51124;SDS011;37163;55.556;39.108;2023-11-21T03:19:27;1.35;;;0.50;;
51124;SDS011;37163;55.556;39.108;2023-11-21T03:21:52;1.13;;;0.40;;
51124;SDS011;37163;55.556;39.108;2023-11-21T03:24:18;0.63;;;0.35;;
51124;SDS011;37163;55.556;39.108;2023-11-21T03:26:45;1.27;;;0.65;;
51124;SDS011;37163;55.556;39.108;2023-11-21T03:29:12;1.55;;;0.68;;
51124;SDS011;37163;55.556;39.108;2023-11-21T03:31:38;1.02;;;0.70;;
51124;SDS011;37163;55.556;39.108;2023-11-21T03:34:04;1.27;;;0.60;;
51124;SDS011;37163;55.556;39.108;2023-11-21T03:36:30;1.70;;;0.77;;
51124;SDS011;37163;55.556;39.108;2023-11-21T03:38:56;1.20;;;0.50;;
51124;SDS011;37163;55.556;39.108;2023-11-21T03:41:21;1.80;;;0.60;;
51124;SDS011;37163;55.556;39.108;2023-11-21T03:43:47;1.08;;;0.70;;
51124;SDS011;37163;55.556;39.108;2023-11-21T03:46:13;1.05;;;0.68;;
51124;SDS011;37163;55.556;39.108;2023-11-21T03:48:39;1.27;;;0.80;;
51124;SDS011;37163;55.556;39.108;2023-11-21T03:51:05;2.30;;;1.30;;
51124;SDS011;37163;55.556;39.108;2023-11-21T03:53:33;0.80;;;0.50;;
51124;SDS011;37163;55.556;39.108;2023-11-21T03:56:02;1.25;;;0.60;;
51124;SDS011;37163;55.556;39.108;2023-11-21T03:58:29;0.95;;;0.52;;
51124;SDS011;37163;55.556;39.108;2023-11-21T04:00:55;1.38;;;0.88;;
51124;SDS011;37163;55.556;39.108;2023-11-21T04:03:20;1.33;;;0.80;;
51124;SDS011;37163;55.556;39.108;2023-11-21T04:05:46;1.55;;;1.00;;
51124;SDS011;37163;55.556;39.108;2023-11-21T04:08:12;1.98;;;1.02;;
51124;SDS011;37163;55.556;39.108;2023-11-21T04:10:38;1.02;;;0.65;;
51124;SDS011;37163;55.556;39.108;2023-11-21T04:13:05;0.88;;;0.70;;
51124;SDS011;37163;55.556;39.108;2023-11-21T04:15:32;2.38;;;0.80;;
51124;SDS011;37163;55.556;39.108;2023-11-21T04:17:58;1.35;;;0.60;;
51124;SDS011;37163;55.556;39.108;2023-11-21T04:20:24;2.00;;;0.77;;
51124;SDS011;37163;55.556;39.108;2023-11-21T04:22:50;1.45;;;0.40;;
51124;SDS011;37163;55.556;39.108;2023-11-21T04:25:16;0.70;;;0.50;;
51124;SDS011;37163;55.556;39.108;2023-11-21T04:27:44;1.75;;;0.70;;
51124;SDS011;37163;55.556;39.108;2023-11-21T04:30:10;1.55;;;0.80;;
51124;SDS011;37163;55.556;39.108;2023-11-21T04:32:37;1.95;;;0.95;;
51124;SDS011;37163;55.556;39.108;2023-11-21T04:35:04;1.75;;;0.70;;
51124;SDS011;37163;55.556;39.108;2023-11-21T04:37:30;2.83;;;1.15;;
51124;SDS011;37163;55.556;39.108;2023-11-21T04:39:56;2.53;;;1.05;;
51124;SDS011;37163;55.556;39.108;2023-11-21T04:42:22;1.33;;;0.77;;
51124;SDS011;37163;55.556;39.108;2023-11-21T04:44:48;1.52;;;0.95;;
51124;SDS011;37163;55.556;39.108;2023-11-21T04:47:14;1.65;;;0.73;;
51124;SDS011;37163;55.556;39.108;2023-11-21T04:49:42;1.58;;;0.47;;
51124;SDS011;37163;55.556;39.108;2023-11-21T04:52:09;1.77;;;0.82;;
51124;SDS011;37163;55.556;39.108;2023-11-21T04:54:35;1.02;;;0.65;;
51124;SDS011;37163;55.556;39.108;2023-11-21T04:57:01;1.17;;;0.47;;
51124;SDS011;37163;55.556;39.108;2023-11-21T04:59:27;1.27;;;0.57;;
51124;SDS011;37163;55.556;39.108;2023-11-21T05:01:53;1.13;;;0.60;;
51124;SDS011;37163;55.556;39.108;2023-11-21T05:04:19;1.33;;;0.50;;
51124;SDS011;37163;55.556;39.108;2023-11-21T05:06:47;2.00;;;0.90;;
51124;SDS011;37163;55.556;39.108;2023-11-21T05:09:14;0.85;;;0.50;;
51124;SDS011;37163;55.556;39.108;2023-11-21T05:11:41;0.95;;;0.60;;
51124;SDS011;37163;55.556;39.108;2023-11-21T05:14:07;1.15;;;0.60;;
51124;SDS011;37163;55.556;39.108;2023-11-21T05:16:33;0.95;;;0.50;;
51124;SDS011;37163;55.556;39.108;2023-11-21T05:19:00;0.57;;;0.43;;
51124;SDS011;37163;55.556;39.108;2023-11-21T05:21:29;0.95;;;0.50;;
51124;SDS011;37163;55.556;39.108;2023-11-21T05:23:57;0.55;;;0.43;;
51124;SDS011;37163;55.556;39.108;2023-11-21T05:26:23;1.33;;;0.60;;
51124;SDS011;37163;55.556;39.108;2023-11-21T05:28:49;1.50;;;0.57;;
51124;SDS011;37163;55.556;39.108;2023-11-21T05:31:15;1.63;;;0.73;;
51124;SDS011;37163;55.556;39.108;2023-11-21T05:33:41;1.23;;;0.60;;
51124;SDS011;37163;55.556;39.108;2023-11-21T05:36:07;1.75;;;0.55;;
51124;SDS011;37163;55.556;39.108;2023-11-21T05:38:33;1.38;;;0.75;;
51124;SDS011;37163;55.556;39.108;2023-11-21T05:41:00;2.00;;;0.80;;
51124;SDS011;37163;55.556;39.108;2023-11-21T05:43:26;1.33;;;0.70;;
51124;SDS011;37163;55.556;39.108;2023-11-21T05:45:54;1.70;;;0.85;;
51124;SDS011;37163;55.556;39.108;2023-11-21T05:48:20;1.58;;;0.57;;
51124;SDS011;37163;55.556;39.108;2023-11-21T05:50:46;1.40;;;0.80;;
51124;SDS011;37163;55.556;39.108;2023-11-21T05:53:14;2.03;;;0.82;;
51124;SDS011;37163;55.556;39.108;2023-11-21T05:55:41;0.93;;;0.50;;
51124;SDS011;37163;55.556;39.108;2023-11-21T05:58:07;0.63;;;0.50;;
51124;SDS011;37163;55.556;39.108;2023-11-21T06:00:33;0.90;;;0.60;;
51124;SDS011;37163;55.556;39.108;2023-11-21T06:02:59;0.88;;;0.52;;
51124;SDS011;37163;55.556;39.108;2023-11-21T06:05:25;1.27;;;0.70;;
51124;SDS011;37163;55.556;39.108;2023-11-21T06:07:51;2.70;;;0.70;;
51124;SDS011;37163;55.556;39.108;2023-11-21T06:10:24;1.00;;;0.80;;
51124;SDS011;37163;55.556;39.108;2023-11-21T06:12:50;0.93;;;0.55;;
51124;SDS011;37163;55.556;39.108;2023-11-21T06:15:16;1.42;;;0.55;;
51124;SDS011;37163;55.556;39.108;2023-11-21T06:17:44;1.70;;;1.08;;
51124;SDS011;37163;55.556;39.108;2023-11-21T06:20:14;1.63;;;0.80;;
51124;SDS011;37163;55.556;39.108;2023-11-21T06:22:44;1.50;;;0.77;;
51124;SDS011;37163;55.556;39.108;2023-11-21T06:25:10;1.35;;;0.70;;
51124;SDS011;37163;55.556;39.108;2023-11-21T06:27:39;2.15;;;0.80;;
51124;SDS011;37163;55.556;39.108;2023-11-21T06:30:06;1.08;;;0.85;;
51124;SDS011;37163;55.556;39.108;2023-11-21T06:32:33;1.60;;;0.80;;
51124;SDS011;37163;55.556;39.108;2023-11-21T06:35:00;1.65;;;0.82;;
51124;SDS011;37163;55.556;39.108;2023-11-21T06:37:28;2.10;;;1.08;;
51124;SDS011;37163;55.556;39.108;2023-11-21T06:39:54;2.40;;;0.88;;
51124;SDS011;37163;55.556;39.108;2023-11-21T06:42:21;2.25;;;0.82;;
51124;SDS011;37163;55.556;39.108;2023-11-21T06:44:48;2.53;;;0.95;;
51124;SDS011;37163;55.556;39.108;2023-11-21T06:47:14;1.65;;;1.00;;
51124;SDS011;37163;55.556;39.108;2023-11-21T06:49:41;1.55;;;1.00;;
51124;SDS011;37163;55.556;39.108;2023-11-21T06:52:08;3.42;;;1.17;;
51124;SDS011;37163;55.556;39.108;2023-11-21T06:57:18;1.60;;;0.90;;
51124;SDS011;37163;55.556;39.108;2023-11-21T06:59:44;1.75;;;0.88;;
51124;SDS011;37163;55.556;39.108;2023-11-21T07:02:10;2.25;;;0.68;;
51124;SDS011;37163;55.556;39.108;2023-11-21T07:04:36;2.40;;;1.00;;
51124;SDS011;37163;55.556;39.108;2023-11-21T07:07:02;1.67;;;0.93;;
51124;SDS011;37163;55.556;39.108;2023-11-21T07:09:29;1.70;;;0.90;;
51124;SDS011;37163;55.556;39.108;2023-11-21T07:11:55;2.80;;;0.90;;
51124;SDS011;37163;55.556;39.108;2023-11-21T07:14:21;2.92;;;1.52;;
51124;SDS011;37163;55.556;39.108;2023-11-21T07:16:47;3.00;;;1.20;;
51124;SDS011;37163;55.556;39.108;2023-11-21T07:19:13;2.35;;;0.93;;
51124;SDS011;37163;55.556;39.108;2023-11-21T07:21:39;1.95;;;1.02;;
51124;SDS011;37163;55.556;39.108;2023-11-21T07:24:05;2.55;;;1.23;;
51124;SDS011;37163;55.556;39.108;2023-11-21T07:26:32;2.08;;;1.02;;
51124;SDS011;37163;55.556;39.108;2023-11-21T07:29:02;2.05;;;0.90;;
51124;SDS011;37163;55.556;39.108;2023-11-21T07:31:28;2.00;;;0.90;;
51124;SDS011;37163;55.556;39.108;2023-11-21T07:33:55;2.38;;;1.10;;
51124;SDS011;37163;55.556;39.108;2023-11-21T07:36:24;1.83;;;1.05;;
51124;SDS011;37163;55.556;39.108;2023-11-21T07:38:50;1.48;;;0.82;;
51124;SDS011;37163;55.556;39.108;2023-11-21T07:41:16;3.28;;;1.38;;
51124;SDS011;37163;55.556;39.108;2023-11-21T07:43:43;3.42;;;1.23;;
51124;SDS011;37163;55.556;39.108;2023-11-21T07:46:09;2.42;;;1.02;;
51124;SDS011;37163;55.556;39.108;2023-11-21T07:48:38;4.35;;;1.25;;
51124;SDS011;37163;55.556;39.108;2023-11-21T07:51:04;1.75;;;1.02;;
51124;SDS011;37163;55.556;39.108;2023-11-21T07:53:30;2.38;;;0.88;;
51124;SDS011;37163;55.556;39.108;2023-11-21T07:55:56;2.88;;;1.38;;
51124;SDS011;37163;55.556;39.108;2023-11-21T07:58:23;1.98;;;1.17;;
51124;SDS011;37163;55.556;39.108;2023-11-21T08:00:49;1.25;;;0.85;;
51124;SDS011;37163;55.556;39.108;2023-11-21T08:03:15;2.33;;;1.15;;
51124;SDS011;37163;55.556;39.108;2023-11-21T08:05:42;1.55;;;0.73;;
51124;SDS011;37163;55.556;39.108;2023-11-21T08:08:08;0.82;;;0.73;;
51124;SDS011;37163;55.556;39.108;2023-11-21T08:10:34;1.85;;;0.93;;
51124;SDS011;37163;55.556;39.108;2023-11-21T08:13:01;1.63;;;0.88;;
51124;SDS011;37163;55.556;39.108;2023-11-21T08:15:27;2.60;;;1.00;;
51124;SDS011;37163;55.556;39.108;2023-11-21T08:17:53;1.90;;;0.73;;
51124;SDS011;37163;55.556;39.108;2023-11-21T08:20:19;1.65;;;0.75;;
51124;SDS011;37163;55.556;39.108;2023-11-21T08:22:44;1.73;;;0.63;;
51124;SDS011;37163;55.556;39.108;2023-11-21T08:25:10;2.67;;;1.02;;
51124;SDS011;37163;55.556;39.108;2023-11-21T08:27:36;1.23;;;0.82;;
51124;SDS011;37163;55.556;39.108;2023-11-21T08:30:03;0.93;;;0.60;;
51124;SDS011;37163;55.556;39.108;2023-11-21T08:32:29;1.77;;;1.00;;
51124;SDS011;37163;55.556;39.108;2023-11-21T08:34:58;2.63;;;1.00;;
51124;SDS011;37163;55.556;39.108;2023-11-21T08:37:25;2.55;;;1.00;;
51124;SDS011;37163;55.556;39.108;2023-11-21T08:39:52;1.83;;;0.82;;
51124;SDS011;37163;55.556;39.108;2023-11-21T08:42:19;1.88;;;0.80;;
51124;SDS011;37163;55.556;39.108;2023-11-21T08:44:45;1.65;;;0.70;;
51124;SDS011;37163;55.556;39.108;2023-11-21T08:47:11;1.25;;;0.80;;
51124;SDS011;37163;55.556;39.108;2023-11-21T08:49:37;1.48;;;0.95;;
51124;SDS011;37163;55.556;39.108;2023-11-21T08:52:03;1.88;;;0.95;;
51124;SDS011;37163;55.556;39.108;2023-11-21T08:54:30;2.50;;;1.15;;
51124;SDS011;37163;55.556;39.108;2023-11-21T08:56:56;1.52;;;1.08;;
51124;SDS011;37163;55.556;39.108;2023-11-21T08:59:24;1.27;;;0.75;;
51124;SDS011;37163;55.556;39.108;2023-11-21T09:01:50;2.38;;;1.10;;
51124;SDS011;37163;55.556;39.108;2023-11-21T09:04:16;2.33;;;1.15;;
51124;SDS011;37163;55.556;39.108;2023-11-21T09:06:42;2.45;;;1.05;;
51124;SDS011;37163;55.556;39.108;2023-11-21T09:09:07;2.63;;;1.08;;
51124;SDS011;37163;55.556;39.108;2023-11-21T09:11:35;2.53;;;1.13;;
51124;SDS011;37163;55.556;39.108;2023-11-21T09:14:02;3.05;;;1.60;;
51124;SDS011;37163;55.556;39.108;2023-11-21T09:16:31;4.10;;;1.67;;
51124;SDS011;37163;55.556;39.108;2023-11-21T09:18:57;1.77;;;1.05;;
51124;SDS011;37163;55.556;39.108;2023-11-21T09:21:23;1.52;;;1.00;;
51124;SDS011;37163;55.556;39.108;2023-11-21T09:23:50;2.95;;;1.02;;
51124;SDS011;37163;55.556;39.108;2023-11-21T09:26:16;2.75;;;1.30;;
51124;SDS011;37163;55.556;39.108;2023-11-21T09:28:45;2.15;;;0.95;;
51124;SDS011;37163;55.556;39.108;2023-11-21T09:31:14;2.95;;;1.02;;
51124;SDS011;37163;55.556;39.108;2023-11-21T09:33:42;2.55;;;1.10;;
51124;SDS011;37163;55.556;39.108;2023-11-21T09:36:11;1.98;;;1.02;;
51124;SDS011;37163;55.556;39.108;2023-11-21T09:38:39;1.90;;;0.90;;
51124;SDS011;37163;55.556;39.108;2023-11-21T09:41:05;3.20;;;1.10;;
51124;SDS011;37163;55.556;39.108;2023-11-21T09:43:37;2.40;;;1.27;;
51124;SDS011;37163;55.556;39.108;2023-11-21T09:46:03;2.85;;;1.33;;
51124;SDS011;37163;55.556;39.108;2023-11-21T09:48:31;1.98;;;1.00;;
51124;SDS011;37163;55.556;39.108;2023-11-21T09:50:57;2.70;;;1.00;;
51124;SDS011;37163;55.556;39.108;2023-11-21T09:53:25;1.17;;;0.70;;
51124;SDS011;37163;55.556;39.108;2023-11-21T09:55:53;2.42;;;1.05;;
51124;SDS011;37163;55.556;39.108;2023-11-21T09:58:19;1.95;;;1.00;;
51124;SDS011;37163;55.556;39.108;2023-11-21T10:00:52;3.83;;;1.17;;
51124;SDS011;37163;55.556;39.108;2023-11-21T10:03:19;3.17;;;1.30;;
51124;SDS011;37163;55.556;39.108;2023-11-21T10:05:45;2.00;;;1.10;;
51124;SDS011;37163;55.556;39.108;2023-11-21T10:08:15;3.30;;;0.80;;
51124;SDS011;37163;55.556;39.108;2023-11-21T10:10:44;2.70;;;1.13;;
51124;SDS011;37163;55.556;39.108;2023-11-21T10:13:11;2.67;;;0.98;;
51124;SDS011;37163;55.556;39.108;2023-11-21T10:15:42;1.35;;;0.77;;
51124;SDS011;37163;55.556;39.108;2023-11-21T10:18:13;3.22;;;1.08;;
51124;SDS011;37163;55.556;39.108;2023-11-21T10:20:43;2.67;;;1.30;;
51124;SDS011;37163;55.556;39.108;2023-11-21T10:23:18;2.55;;;1.02;;
51124;SDS011;37163;55.556;39.108;2023-11-21T10:25:44;0.85;;;0.68;;
51124;SDS011;37163;55.556;39.108;2023-11-21T10:28:10;2.25;;;1.02;;
51124;SDS011;37163;55.556;39.108;2023-11-21T10:30:36;2.85;;;0.93;;
51124;SDS011;37163;55.556;39.108;2023-11-21T10:33:07;1.52;;;0.70;;
51124;SDS011;37163;55.556;39.108;2023-11-21T10:35:43;1.17;;;0.65;;
51124;SDS011;37163;55.556;39.108;2023-11-21T10:38:19;0.85;;;0.60;;
51124;SDS011;37163;55.556;39.108;2023-11-21T10:40:49;1.77;;;0.90;;
51124;SDS011;37163;55.556;39.108;2023-11-21T10:43:16;1.65;;;0.70;;
51124;SDS011;37163;55.556;39.108;2023-11-21T10:45:42;2.60;;;0.82;;
51124;SDS011;37163;55.556;39.108;2023-11-21T10:48:14;2.38;;;1.20;;
51124;SDS011;37163;55.556;39.108;2023-11-21T10:50:41;3.13;;;0.98;;
51124;SDS011;37163;55.556;39.108;2023-11-21T10:53:07;1.77;;;0.80;;
51124;SDS011;37163;55.556;39.108;2023-11-21T10:55:33;2.03;;;1.10;;
51124;SDS011;37163;55.556;39.108;2023-11-21T10:58:00;2.20;;;1.00;;
51124;SDS011;37163;55.556;39.108;2023-11-21T11:00:28;2.45;;;1.17;;
51124;SDS011;37163;55.556;39.108;2023-11-21T11:02:54;2.03;;;0.98;;
51124;SDS011;37163;55.556;39.108;2023-11-21T11:05:21;2.10;;;0.90;;
51124;SDS011;37163;55.556;39.108;2023-11-21T11:07:52;1.80;;;0.95;;
51124;SDS011;37163;55.556;39.108;2023-11-21T11:10:26;2.55;;;1.20;;
51124;SDS011;37163;55.556;39.108;2023-11-21T11:12:56;1.73;;;0.82;;
51124;SDS011;37163;55.556;39.108;2023-11-21T11:15:25;0.93;;;0.60;;
51124;SDS011;37163;55.556;39.108;2023-11-21T11:17:52;1.95;;;1.15;;
51124;SDS011;37163;55.556;39.108;2023-11-21T11:20:31;1.75;;;1.00;;
51124;SDS011;37163;55.556;39.108;2023-11-21T11:25:56;1.73;;;0.95;;
51124;SDS011;37163;55.556;39.108;2023-11-21T11:31:27;3.58;;;1.30;;
51124;SDS011;37163;55.556;39.108;2023-11-21T11:34:24;1.17;;;0.70;;
51124;SDS011;37163;55.556;39.108;2023-11-21T11:36:58;2.53;;;1.17;;
51124;SDS011;37163;55.556;39.108;2023-11-21T11:41:56;2.35;;;1.10;;
51124;SDS011;37163;55.556;39.108;2023-11-21T11:47:21;4.43;;;1.90;;
51124;SDS011;37163;55.556;39.108;2023-11-21T11:49:56;3.55;;;1.40;;
51124;SDS011;37163;55.556;39.108;2023-11-21T11:52:40;3.28;;;1.60;;
51124;SDS011;37163;55.556;39.108;2023-11-21T11:57:36;2.17;;;1.00;;
51124;SDS011;37163;55.556;39.108;2023-11-21T12:00:14;2.75;;;1.13;;
51124;SDS011;37163;55.556;39.108;2023-11-21T12:05:15;1.70;;;1.08;;
51124;SDS011;37163;55.556;39.108;2023-11-21T12:07:48;1.55;;;0.90;;
51124;SDS011;37163;55.556;39.108;2023-11-21T12:10:22;2.47;;;1.05;;
51124;SDS011;37163;55.556;39.108;2023-11-21T12:12:54;1.77;;;0.60;;
51124;SDS011;37163;55.556;39.108;2023-11-21T12:15:20;1.38;;;0.75;;
51124;SDS011;37163;55.556;39.108;2023-11-21T12:17:47;2.92;;;1.13;;
51124;SDS011;37163;55.556;39.108;2023-11-21T12:20:14;3.10;;;1.42;;
51124;SDS011;37163;55.556;39.108;2023-11-21T12:22:45;2.70;;;1.42;;
51124;SDS011;37163;55.556;39.108;2023-11-21T12:25:19;3.35;;;1.30;;
51124;SDS011;37163;55.556;39.108;2023-11-21T12:27:47;1.58;;;1.13;;
51124;SDS011;37163;55.556;39.108;2023-11-21T12:30:15;1.65;;;0.90;;
51124;SDS011;37163;55.556;39.108;2023-11-21T12:32:43;2.28;;;1.00;;
51124;SDS011;37163;55.556;39.108;2023-11-21T12:35:09;2.05;;;0.75;;
51124;SDS011;37163;55.556;39.108;2023-11-21T12:37:38;1.55;;;0.75;;
51124;SDS011;37163;55.556;39.108;2023-11-21T12:40:06;4.95;;;0.80;;
51124;SDS011;37163;55.556;39.108;2023-11-21T12:42:33;2.60;;;1.25;;
51124;SDS011;37163;55.556;39.108;2023-11-21T12:47:47;1.33;;;0.70;;
51124;SDS011;37163;55.556;39.108;2023-11-21T12:50:21;1.48;;;0.80;;
51124;SDS011;37163;55.556;39.108;2023-11-21T12:52:52;2.22;;;0.75;;
51124;SDS011;37163;55.556;39.108;2023-11-21T12:55:22;1.20;;;0.55;;
51124;SDS011;37163;55.556;39.108;2023-11-21T12:57:54;1.17;;;0.50;;
51124;SDS011;37163;55.556;39.108;2023-11-21T13:00:29;2.25;;;1.10;;
51124;SDS011;37163;55.556;39.108;2023-11-21T13:02:57;1.25;;;0.80;;
51124;SDS011;37163;55.556;39.108;2023-11-21T13:05:24;1.30;;;0.60;;
51124;SDS011;37163;55.556;39.108;2023-11-21T13:07:54;1.17;;;0.70;;
51124;SDS011;37163;55.556;39.108;2023-11-21T13:10:26;0.68;;;0.40;;
51124;SDS011;37163;55.556;39.108;2023-11-21T13:12:56;1.48;;;0.55;;
51124;SDS011;37163;55.556;39.108;2023-11-21T13:15:24;1.20;;;0.80;;
51124;SDS011;37163;55.556;39.108;2023-11-21T13:17:50;1.30;;;0.60;;
51124;SDS011;37163;55.556;39.108;2023-11-21T13:20:17;1.00;;;0.50;;
51124;SDS011;37163;55.556;39.108;2023-11-21T13:22:49;1.52;;;0.80;;
51124;SDS011;37163;55.556;39.108;2023-11-21T13:25:16;1.95;;;0.70;;
51124;SDS011;37163;55.556;39.108;2023-11-21T13:27:45;1.42;;;0.77;;
51124;SDS011;37163;55.556;39.108;2023-11-21T13:30:14;1.83;;;0.90;;
51124;SDS011;37163;55.556;39.108;2023-11-21T13:32:48;0.65;;;0.50;;
51124;SDS011;37163;55.556;39.108;2023-11-21T13:35:17;2.53;;;1.33;;
51124;SDS011;37163;55.556;39.108;2023-11-21T13:37:52;1.10;;;0.73;;
51124;SDS011;37163;55.556;39.108;2023-11-21T13:40:21;1.02;;;0.88;;
51124;SDS011;37163;55.556;39.108;2023-11-21T13:42:52;1.65;;;0.82;;
51124;SDS011;37163;55.556;39.108;2023-11-21T13:45:21;2.38;;;0.98;;
51124;SDS011;37163;55.556;39.108;2023-11-21T13:47:52;1.48;;;0.77;;
51124;SDS011;37163;55.556;39.108;2023-11-21T13:50:23;2.10;;;1.15;;
51124;SDS011;37163;55.556;39.108;2023-11-21T13:52:54;1.17;;;0.65;;
51124;SDS011;37163;55.556;39.108;2023-11-21T13:55:20;1.25;;;0.65;;
51124;SDS011;37163;55.556;39.108;2023-11-21T13:57:49;1.48;;;0.77;;
51124;SDS011;37163;55.556;39.108;2023-11-21T14:00:17;1.20;;;0.70;;
51124;SDS011;37163;55.556;39.108;2023-11-21T14:03:01;1.48;;;0.75;;
51124;SDS011;37163;55.556;39.108;2023-11-21T14:05:27;1.15;;;0.57;;
51124;SDS011;37163;55.556;39.108;2023-11-21T14:07:57;2.15;;;0.82;;
51124;SDS011;37163;55.556;39.108;2023-11-21T14:10:29;1.13;;;0.63;;
51124;SDS011;37163;55.556;39.108;2023-11-21T14:13:05;1.10;;;0.73;;
51124;SDS011;37163;55.556;39.108;2023-11-21T14:15:31;0.73;;;0.50;;
51124;SDS011;37163;55.556;39.108;2023-11-21T14:17:59;1.17;;;0.70;;
51124;SDS011;37163;55.556;39.108;2023-11-21T14:22:58;0.50;;;0.50;;
51124;SDS011;37163;55.556;39.108;2023-11-21T14:25:24;0.52;;;0.50;;
51124;SDS011;37163;55.556;39.108;2023-11-21T14:27:50;0.68;;;0.40;;
51124;SDS011;37163;55.556;39.108;2023-11-21T14:30:16;0.50;;;0.50;;
51124;SDS011;37163;55.556;39.108;2023-11-21T14:32:44;1.88;;;0.60;;
51124;SDS011;37163;55.556;39.108;2023-11-21T14:35:10;0.68;;;0.30;;
51124;SDS011;37163;55.556;39.108;2023-11-21T14:37:36;0.52;;;0.43;;
51124;SDS011;37163;55.556;39.108;2023-11-21T14:40:01;1.27;;;0.68;;
51124;SDS011;37163;55.556;39.108;2023-11-21T14:42:30;0.40;;;0.40;;
51124;SDS011;37163;55.556;39.108;2023-11-21T14:44:55;0.30;;;0.30;;
51124;SDS011;37163;55.556;39.108;2023-11-21T14:47:25;1.45;;;0.55;;
51124;SDS011;37163;55.556;39.108;2023-11-21T14:49:52;0.90;;;0.47;;
51124;SDS011;37163;55.556;39.108;2023-11-21T14:52:19;1.75;;;0.75;;
51124;SDS011;37163;55.556;39.108;2023-11-21T14:54:56;0.57;;;0.40;;
51124;SDS011;37163;55.556;39.108;2023-11-21T14:57:43;0.68;;;0.40;;
51124;SDS011;37163;55.556;39.108;2023-11-21T15:00:18;1.27;;;0.68;;